createdAt,value
2022-11-01T00:15:17.830Z,100
2022-11-01T00:31:00.809Z,100
2022-11-01T00:46:43.149Z,100
2022-11-01T01:02:25.647Z,100
2022-11-01T01:18:08.136Z,100
2022-11-01T01:33:51.021Z,100
2022-11-01T01:49:33.860Z,100
2022-11-01T02:05:16.267Z,100
2022-11-01T02:20:58.731Z,100
2022-11-01T02:36:41.052Z,100
2022-11-01T02:52:23.352Z,100
2022-11-01T03:08:06.134Z,100
2022-11-01T03:23:48.773Z,100
2022-11-01T03:39:31.456Z,100
2022-11-01T03:55:13.487Z,100
2022-11-01T04:10:56.197Z,100
2022-11-01T04:26:38.776Z,100
2022-11-01T04:42:21.412Z,100
2022-11-01T04:58:03.852Z,100
2022-11-01T05:13:46.645Z,100
2022-11-01T05:29:28.810Z,100
2022-11-01T05:45:11.511Z,100
2022-11-01T06:00:53.900Z,100
2022-11-01T06:16:36.277Z,100
2022-11-01T06:32:18.462Z,100
2022-11-01T06:48:01.380Z,100
2022-11-01T07:03:44.288Z,100
2022-11-01T07:19:26.387Z,100
2022-11-01T07:35:09.077Z,100
2022-11-01T07:50:51.843Z,100
2022-11-01T08:06:34.214Z,100
2022-11-01T08:22:16.722Z,100
2022-11-01T08:37:59.326Z,100
2022-11-01T08:53:42.045Z,100
2022-11-01T09:09:24.133Z,92.4
2022-11-01T09:25:06.401Z,94.59
2022-11-01T09:40:48.629Z,82.76
2022-11-01T09:56:30.924Z,81.74
2022-11-01T10:12:13.605Z,80.74
2022-11-01T10:27:56.357Z,81.07
2022-11-01T10:43:38.571Z,80.16
2022-11-01T10:59:21.471Z,77.39
2022-11-01T11:15:04.179Z,70.23
2022-11-01T11:30:46.504Z,64.51
2022-11-01T11:46:28.919Z,65.7
2022-11-01T12:02:11.374Z,69.52
2022-11-01T12:17:54.354Z,73.74
2022-11-01T12:49:19.023Z,82.87
2022-11-01T13:05:01.388Z,84.32
2022-11-01T13:20:43.992Z,84.5
2022-11-01T13:36:26.166Z,83.14
2022-11-01T13:52:08.807Z,81.78
2022-11-01T14:07:50.917Z,79.66
2022-11-01T14:08:38.168Z,79.09
2022-11-01T14:24:20.776Z,79.35
2022-11-01T14:40:02.953Z,80.29
2022-11-01T14:55:45.863Z,80.59
2022-11-01T15:11:28.519Z,81.47
2022-11-01T15:27:11.005Z,83.04
2022-11-01T15:42:53.024Z,85.83
2022-11-01T15:58:35.097Z,87.47
2022-11-01T16:14:17.552Z,88.07
2022-11-01T16:30:00.259Z,91.4
2022-11-01T16:45:42.320Z,91.91
2022-11-01T17:01:24.891Z,93.32
2022-11-01T17:17:07.475Z,94.66
2022-11-01T17:32:50.117Z,96.45
2022-11-01T17:48:32.641Z,97.29
2022-11-01T18:04:15.701Z,96.35
2022-11-01T18:19:58.399Z,96.7
2022-11-01T18:35:40.631Z,97.19
2022-11-01T18:51:22.905Z,96.24
2022-11-01T19:07:05.228Z,94.54
2022-11-01T19:22:48.163Z,94.12
2022-11-01T19:38:30.673Z,95.49
2022-11-01T19:54:12.870Z,95.16
2022-11-01T20:09:54.922Z,94.49
2022-11-01T20:25:37.338Z,94.3
2022-11-01T20:41:19.512Z,94.58
2022-11-01T20:57:02.326Z,94.6
2022-11-01T21:12:45.183Z,94.63
2022-11-01T21:28:27.842Z,94.64
2022-11-01T21:44:10.816Z,95.4
2022-11-01T21:59:53.440Z,95.29
2022-11-01T22:15:35.914Z,96.22
2022-11-01T22:31:18.259Z,96.27
2022-11-01T22:47:00.820Z,96.31
2022-11-01T23:02:43.408Z,97.3
2022-11-01T23:18:26.208Z,97.12
2022-11-01T23:34:08.547Z,96.72
2022-11-01T23:49:50.711Z,96.61
